createdAt,value
2019-06-01T05:12:01.954Z,14.90
2019-06-01T05:22:01.751Z,15.26
2019-06-01T05:32:03.963Z,15.65
2019-06-01T05:42:01.661Z,16.01
2019-06-01T05:52:01.443Z,16.45
2019-06-01T06:02:01.709Z,16.82
2019-06-01T06:12:01.722Z,17.21
2019-06-01T06:22:01.151Z,17.43
2019-06-01T06:32:01.830Z,17.82
2019-06-01T06:42:01.903Z,17.98
2019-06-01T06:52:01.789Z,18.95
2019-06-01T07:02:01.927Z,19.56
2019-06-01T07:12:02.218Z,19.54
2019-06-01T07:22:04.036Z,20.00
2019-06-01T07:32:01.751Z,20.11
2019-06-01T07:42:01.883Z,20.40
2019-06-01T07:52:11.997Z,20.59
2019-06-01T08:02:01.376Z,21.00
2019-06-01T08:12:03.993Z,20.98
2019-06-01T08:22:01.807Z,20.89
2019-06-01T08:32:01.882Z,22.63
2019-06-01T08:42:01.839Z,21.71
2019-06-01T08:52:02.019Z,22.31
2019-06-01T09:02:01.871Z,21.30
2019-06-01T09:12:01.859Z,22.02
2019-06-01T09:22:01.892Z,23.26
2019-06-01T09:32:01.390Z,22.34
2019-06-01T09:42:01.892Z,22.45
2019-06-01T09:52:02.473Z,22.84
2019-06-01T10:02:02.101Z,22.92
2019-06-01T10:12:01.859Z,22.88
2019-06-01T10:22:01.441Z,23.33
2019-06-01T10:32:02.099Z,23.65
2019-06-01T10:42:01.370Z,23.52
2019-06-01T10:52:01.140Z,23.25
2019-06-01T11:02:02.113Z,22.91
2019-06-01T11:12:00.974Z,23.94
2019-06-01T11:22:02.087Z,22.94
2019-06-01T11:32:01.034Z,23.83
2019-06-01T11:42:00.959Z,24.41
2019-06-01T11:52:01.770Z,24.44
2019-06-01T12:02:01.121Z,25.20
2019-06-01T12:12:01.098Z,24.66
2019-06-01T12:22:01.269Z,25.38
2019-06-01T12:32:01.236Z,24.41
2019-06-01T12:42:00.999Z,25.50
2019-06-01T12:52:01.696Z,25.43
2019-06-01T13:02:01.865Z,25.63
2019-06-01T13:12:00.962Z,25.80
2019-06-01T13:22:02.074Z,25.93
2019-06-01T13:32:01.447Z,25.59
2019-06-01T13:42:01.305Z,26.24
2019-06-01T13:52:01.282Z,26.77
2019-06-01T14:02:01.148Z,26.34
2019-06-01T14:12:01.568Z,26.64
2019-06-01T14:22:01.724Z,26.19
2019-06-01T14:32:01.385Z,26.59
2019-06-01T14:42:01.234Z,26.89
2019-06-01T14:52:01.496Z,27.14
2019-06-01T15:02:01.378Z,26.54
2019-06-01T15:12:01.589Z,26.57
2019-06-01T15:22:03.533Z,26.74
2019-06-01T15:32:02.409Z,26.46
2019-06-01T15:42:01.418Z,27.12
2019-06-01T15:52:02.777Z,26.01
2019-06-01T16:02:03.399Z,26.40
2019-06-01T16:12:01.758Z,26.83
2019-06-01T16:22:02.649Z,26.87
2019-06-01T16:32:02.957Z,26.12
2019-06-01T16:42:02.138Z,25.52
2019-06-01T16:52:03.253Z,25.52
2019-06-01T17:02:03.383Z,25.60
2019-06-01T17:12:03.051Z,26.27
2019-06-01T17:22:03.492Z,26.36
2019-06-01T17:32:16.747Z,25.60
2019-06-01T17:42:02.525Z,25.05
2019-06-01T17:52:01.908Z,24.90
2019-06-01T18:02:03.529Z,24.64
2019-06-01T18:12:02.161Z,24.56
2019-06-01T18:22:02.621Z,23.72
2019-06-01T18:32:03.003Z,22.96
2019-06-01T18:42:02.059Z,22.18
2019-06-01T18:52:02.150Z,21.91
2019-06-01T19:02:02.319Z,21.57
